METAR Data
IDs: Format: Raw Decoded Include TAF

Data at: 1435 UTC 19 Jan 2019

KHLX 191415Z AUTO 15004KT 10SM OVC008 03/02 A3000 RMK AO2 T00280021